Time;durP1;ratioP1;P1;durP2;ratioP2;P2;SDS_P1;SDS_P2;PMS_P1;PMS_P2;Temp;Humidity;BMP_temperature;BMP_pressure;BME280_temperature;BME280_humidity;BME280_pressure;Samples;Min_cycle;Max_cycle;Signal;HPM_P1;HPM_P2
2020/12/23 00:00:08;;;;;;;34.75;22.30;;;;;;;3.79;84.71;101230.16;5033188;28;20029;-67
2020/12/23 00:02:34;;;;;;;35.78;22.77;;;;;;;3.74;84.55;101220.84;5033076;28;20036;-67
2020/12/23 00:05:00;;;;;;;35.22;24.88;;;;;;;3.62;85.39;101205.78;5033533;28;20420;-67
2020/12/23 00:07:26;;;;;;;36.38;24.27;;;;;;;3.77;84.77;101224.16;5033026;28;20032;-66
2020/12/23 00:09:51;;;;;;;42.13;27.20;;;;;;;3.69;83.84;101225.38;5032677;28;20025;-68
2020/12/23 00:12:17;;;;;;;34.22;22.48;;;;;;;3.92;83.81;101240.06;5032607;28;20022;-67
2020/12/23 00:14:42;;;;;;;37.17;25.02;;;;;;;3.81;84.01;101217.13;5032635;28;20021;-66
2020/12/23 00:17:07;;;;;;;38.60;26.20;;;;;;;3.91;83.97;101234.00;5032442;28;20032;-67
2020/12/23 00:19:33;;;;;;;43.33;27.45;;;;;;;3.73;84.47;101219.16;5032721;28;20123;-67
2020/12/23 00:21:59;;;;;;;35.13;23.92;;;;;;;3.82;83.40;101208.44;5032921;28;20385;-67
2020/12/23 00:24:25;;;;;;;41.13;25.52;;;;;;;3.68;83.97;101201.22;5032536;28;20036;-68
2020/12/23 00:26:50;;;;;;;39.65;26.58;;;;;;;3.73;84.10;101194.06;5032676;28;20030;-67
2020/12/23 00:29:16;;;;;;;43.05;26.73;;;;;;;3.96;83.98;101232.09;5032325;28;20076;-67
2020/12/23 00:31:41;;;;;;;37.92;25.35;;;;;;;3.87;84.13;101219.47;5032207;28;20045;-67
2020/12/23 00:34:06;;;;;;;41.88;26.08;;;;;;;3.90;84.35;101213.31;5032437;28;20044;-67
2020/12/23 00:36:33;;;;;;;41.00;26.17;;;;;;;3.72;85.20;101196.75;5032308;28;20132;-68
2020/12/23 00:38:58;;;;;;;42.58;27.00;;;;;;;3.77;84.18;101205.19;5032377;28;20087;-68
2020/12/23 00:41:24;;;;;;;44.53;26.23;;;;;;;3.88;84.54;101226.38;5032206;28;20033;-68
2020/12/23 00:43:49;;;;;;;41.60;26.55;;;;;;;3.68;85.61;101211.56;5032182;28;20036;-67
2020/12/23 00:46:15;;;;;;;42.85;26.10;;;;;;;3.57;85.35;101181.75;5031908;28;20033;-67
2020/12/23 00:48:41;;;;;;;43.72;27.05;;;;;;;3.57;85.05;101182.59;5032333;28;20481;-67
2020/12/23 00:51:14;;;;;;;37.65;25.17;;;;;;;4.01;84.67;101227.56;5032126;28;20094;-67
2020/12/23 00:53:40;;;;;;;39.08;24.77;;;;;;;3.98;84.29;101219.06;5032065;28;20032;-68
2020/12/23 00:56:06;;;;;;;33.55;24.08;;;;;;;3.83;84.53;101199.75;5032191;28;20041;-68
2020/12/23 00:58:31;;;;;;;36.25;25.48;;;;;;;4.15;84.02;101226.16;5032203;28;20034;-68
2020/12/23 01:00:57;;;;;;;39.22;26.52;;;;;;;4.12;83.61;101206.41;5031935;28;20029;-67
2020/12/23 01:03:23;;;;;;;40.00;24.00;;;;;;;3.96;84.37;101185.41;5032227;28;20076;-67
2020/12/23 01:05:48;;;;;;;42.95;24.33;;;;;;;3.94;84.36;101173.41;5032412;28;20448;-67
2020/12/23 01:08:14;;;;;;;47.45;29.38;;;;;;;3.90;84.71;101190.81;5031999;28;20032;-67
2020/12/23 01:10:39;;;;;;;48.25;27.92;;;;;;;3.89;85.33;101211.66;5032390;28;20037;-67
2020/12/23 01:13:05;;;;;;;43.67;29.38;;;;;;;3.95;85.00;101214.84;5032031;28;20032;-67
2020/12/23 01:15:30;;;;;;;43.78;28.75;;;;;;;3.92;84.87;101196.81;5032353;28;20504;-67
2020/12/23 01:17:55;;;;;;;43.70;28.58;;;;;;;3.86;85.55;101178.91;5032096;28;20473;-68
2020/12/23 01:20:21;;;;;;;39.67;27.27;;;;;;;3.95;84.71;101173.34;5032063;28;20029;-67
2020/12/23 01:22:46;;;;;;;41.08;26.73;;;;;;;4.08;84.67;101168.50;5034944;28;20067;-67
2020/12/23 01:25:12;;;;;;;39.58;25.50;;;;;;;4.30;84.42;101191.81;5036060;28;20029;-67
2020/12/23 01:27:37;;;;;;;43.55;26.15;;;;;;;4.30;84.05;101189.22;5035998;28;20026;-67
2020/12/23 01:30:03;;;;;;;47.28;28.30;;;;;;;3.93;84.56;101164.78;5035804;28;20032;-67
2020/12/23 01:32:29;;;;;;;47.05;29.90;;;;;;;3.97;85.57;101176.72;5035697;28;20080;-67
2020/12/23 01:34:54;;;;;;;40.15;27.00;;;;;;;3.93;85.07;101149.22;5035604;28;20026;-67
2020/12/23 01:37:19;;;;;;;36.97;25.25;;;;;;;4.28;84.72;101188.44;5035870;28;20021;-67
2020/12/23 01:39:45;;;;;;;40.47;26.15;;;;;;;4.15;85.25;101185.53;5035985;28;20025;-68
2020/12/23 01:42:10;;;;;;;44.50;26.33;;;;;;;3.91;86.02;101160.53;5035754;28;20167;-67
2020/12/23 01:44:37;;;;;;;40.15;25.95;;;;;;;3.91;86.97;101192.50;5035668;28;20056;-67
2020/12/23 01:47:07;;;;;;;44.17;29.25;;;;;;;3.90;86.69;101182.22;5035419;28;20374;-68
2020/12/23 01:49:33;;;;;;;38.88;24.73;;;;;;;4.08;86.50;101191.00;5035804;28;20022;-67
2020/12/23 01:51:59;;;;;;;43.45;27.08;;;;;;;3.66;87.14;101143.38;5035400;28;20021;-67
2020/12/23 01:54:25;;;;;;;34.42;21.00;;;;;;;3.64;86.59;101165.91;5067285;28;20025;-67
2020/12/23 01:56:56;;;;;;;34.47;22.20;;;;;;;3.67;86.97;101154.59;5033943;28;20171;-67
2020/12/23 01:59:22;;;;;;;39.47;24.45;;;;;;;3.85;87.36;101177.22;5035937;28;20065;-67
2020/12/23 02:01:49;;;;;;;42.03;25.45;;;;;;;3.84;87.52;101172.91;5035196;28;20451;-67
2020/12/23 02:04:15;;;;;;;37.63;23.98;;;;;;;3.83;87.35;101142.72;5035209;28;20030;-67
2020/12/23 02:06:40;;;;;;;32.78;20.58;;;;;;;3.90;86.72;101143.31;5035325;28;20029;-67
2020/12/23 02:09:07;;;;;;;36.20;22.50;;;;;;;3.97;84.88;101134.38;5035272;28;20022;-67
2020/12/23 02:11:33;;;;;;;32.88;20.67;;;;;;;4.14;84.83;101133.69;5035152;28;20033;-67
2020/12/23 02:13:58;;;;;;;34.47;21.52;;;;;;;4.14;85.13;101155.28;5067109;28;20480;-66
2020/12/23 02:16:23;;;;;;;34.42;21.38;;;;;;;4.23;84.75;101157.50;5034970;28;20041;-67
2020/12/23 02:18:49;;;;;;;34.60;21.25;;;;;;;4.30;84.62;101149.47;5034878;28;20030;-67
2020/12/23 02:21:15;;;;;;;36.33;21.50;;;;;;;4.23;84.69;101147.13;5034777;28;20029;-68
2020/12/23 02:23:41;;;;;;;39.25;22.23;;;;;;;4.07;84.92;101133.09;5034711;28;20033;-67
2020/12/23 02:26:07;;;;;;;37.35;21.95;;;;;;;4.14;84.50;101138.88;5034345;28;20416;-67
2020/12/23 02:28:32;;;;;;;34.08;21.20;;;;;;;3.79;85.29;101120.41;5034335;28;20029;-68
2020/12/23 02:31:01;;;;;;;36.22;22.60;;;;;;;4.01;85.13;101151.50;5034531;28;20032;-66
2020/12/23 02:33:27;;;;;;;34.28;22.13;;;;;;;4.14;85.25;101160.47;5033252;28;20493;-67
2020/12/23 02:35:52;;;;;;;25.83;16.20;;;;;;;4.25;85.71;101154.81;5034348;28;20082;-67
2020/12/23 02:38:18;;;;;;;32.50;20.30;;;;;;;4.43;85.70;101159.25;5034449;28;20076;-68
2020/12/23 02:40:43;;;;;;;36.53;21.67;;;;;;;4.25;85.25;101127.16;5034315;28;20615;-69
2020/12/23 02:43:08;;;;;;;37.47;20.83;;;;;;;4.58;85.03;101152.56;5034348;28;20469;-70
2020/12/23 02:45:34;;;;;;;28.95;19.73;;;;;;;4.60;84.37;101139.53;5034537;28;20030;-70
2020/12/23 02:47:59;;;;;;;31.75;19.98;;;;;;;4.68;83.88;101132.25;5034603;28;20040;-70
2020/12/23 02:50:25;;;;;;;32.67;19.90;;;;;;;4.36;83.15;101098.16;5034306;28;20060;-67
2020/12/23 02:52:50;;;;;;;33.38;22.08;;;;;;;4.32;85.05;101112.16;5034072;28;20481;-67
2020/12/23 02:55:16;;;;;;;33.05;20.50;;;;;;;4.46;85.00;101134.94;5034025;28;20029;-68
2020/12/23 02:57:41;;;;;;;34.50;20.42;;;;;;;4.42;85.59;101131.63;5034164;28;20062;-67
2020/12/23 03:00:07;;;;;;;36.28;22.23;;;;;;;4.15;86.13;101096.44;5034084;28;20032;-67
2020/12/23 03:02:32;;;;;;;33.47;20.90;;;;;;;4.23;86.24;101096.97;5034271;28;20374;-67
2020/12/23 03:04:57;;;;;;;31.23;21.88;;;;;;;4.25;85.20;101082.16;5034163;28;20393;-67
2020/12/23 03:07:23;;;;;;;35.17;21.63;;;;;;;4.43;85.71;101111.72;5034091;28;20401;-67
2020/12/23 03:09:48;;;;;;;33.35;19.92;;;;;;;4.32;84.84;101087.94;5033844;28;20683;-67
2020/12/23 03:12:14;;;;;;;32.90;19.23;;;;;;;4.54;85.26;101112.06;5033884;28;20029;-68
2020/12/23 03:14:39;;;;;;;31.27;19.25;;;;;;;4.37;84.34;101086.00;5033736;28;20037;-68
2020/12/23 03:17:05;;;;;;;31.55;18.20;;;;;;;4.03;84.91;101082.25;5033623;28;20022;-67
2020/12/23 03:19:30;;;;;;;33.20;19.70;;;;;;;4.08;86.18;101110.56;5033586;28;20026;-67
2020/12/23 03:21:57;;;;;;;30.35;19.05;;;;;;;4.18;85.72;101112.72;5033888;28;20026;-67
2020/12/23 03:24:23;;;;;;;31.48;18.75;;;;;;;4.04;85.30;101083.91;5033569;28;20610;-68
2020/12/23 03:26:48;;;;;;;29.25;18.02;;;;;;;4.22;85.41;101092.72;5033794;28;20022;-67
2020/12/23 03:29:13;;;;;;;30.35;18.73;;;;;;;4.43;84.57;101137.66;5033422;28;20053;-67
2020/12/23 03:31:40;;;;;;;29.25;17.55;;;;;;;4.14;84.68;101099.94;5033566;28;20049;-67
2020/12/23 03:34:05;;;;;;;28.80;17.75;;;;;;;4.24;85.45;101107.28;5033564;28;20104;-67
2020/12/23 03:36:31;;;;;;;27.60;17.27;;;;;;;4.06;85.60;101081.28;5033565;28;20128;-67
2020/12/23 03:38:56;;;;;;;27.88;17.13;;;;;;;4.25;85.80;101131.47;5033270;28;20025;-69
2020/12/23 03:41:22;;;;;;;28.00;18.08;;;;;;;4.09;85.63;101094.13;5033236;28;20042;-67
2020/12/23 03:43:47;;;;;;;28.42;16.35;;;;;;;4.32;85.77;101135.53;5033061;28;20025;-67
2020/12/23 03:46:13;;;;;;;31.58;18.52;;;;;;;4.17;86.01;101097.22;5033486;28;20031;-67
2020/12/23 03:48:38;;;;;;;29.50;17.25;;;;;;;4.21;85.17;101102.22;5033365;28;20025;-67
2020/12/23 03:51:04;;;;;;;28.20;18.20;;;;;;;4.39;85.67;101129.16;5033227;28;20021;-67
2020/12/23 03:53:29;;;;;;;31.50;18.05;;;;;;;4.47;85.48;101134.84;5033122;28;20030;-67
2020/12/23 03:55:55;;;;;;;28.42;17.65;;;;;;;4.17;85.50;101120.59;5032845;28;20048;-67
2020/12/23 03:58:20;;;;;;;29.80;18.25;;;;;;;4.28;85.57;101102.81;5033575;28;20029;-67
2020/12/23 04:00:45;;;;;;;29.63;18.02;;;;;;;4.57;85.35;101132.72;5033428;28;20078;-67
2020/12/23 04:03:11;;;;;;;29.23;18.33;;;;;;;4.43;85.15;101107.34;5032989;28;20028;-67
2020/12/23 04:05:37;;;;;;;32.53;19.33;;;;;;;4.43;85.16;101099.56;5033408;28;20026;-67
2020/12/23 04:08:04;;;;;;;32.55;18.52;;;;;;;4.36;85.83;101086.94;5033025;28;20082;-67
2020/12/23 04:10:29;;;;;;;29.50;18.95;;;;;;;4.36;85.57;101085.16;5033411;28;20228;-67
2020/12/23 04:12:55;;;;;;;29.10;18.05;;;;;;;4.34;85.36;101080.94;5032764;28;20471;-67
2020/12/23 04:15:20;;;;;;;27.30;17.08;;;;;;;4.44;85.37;101106.44;5032762;28;20021;-67
2020/12/23 04:17:46;;;;;;;28.80;17.35;;;;;;;4.57;85.17;101116.31;5032839;28;20481;-67
2020/12/23 04:20:12;;;;;;;26.38;16.80;;;;;;;4.57;85.26;101118.91;5032255;28;20072;-67
2020/12/23 04:22:37;;;;;;;25.58;14.65;;;;;;;4.61;84.79;101123.03;5031516;28;20079;-68
2020/12/23 04:25:05;;;;;;;25.95;15.68;;;;;;;4.46;84.65;101091.66;5031495;28;20026;-67
2020/12/23 04:27:31;;;;;;;22.58;14.32;;;;;;;4.72;84.52;101126.00;5032666;28;20048;-67
2020/12/23 04:29:57;;;;;;;22.45;13.20;;;;;;;4.88;83.40;101132.22;5032763;28;20507;-67
2020/12/23 04:32:22;;;;;;;25.02;16.13;;;;;;;4.89;84.04;101139.13;5032455;28;20053;-67
2020/12/23 04:34:48;;;;;;;24.98;14.63;;;;;;;4.70;84.15;101107.06;5032522;28;20036;-67
2020/12/23 04:37:13;;;;;;;22.15;14.63;;;;;;;4.61;84.20;101115.25;5032578;28;20401;-67
2020/12/23 04:39:39;;;;;;;29.30;16.13;;;;;;;4.76;85.20;101148.34;5032196;28;20029;-67
2020/12/23 04:42:05;;;;;;;31.00;18.00;;;;;;;4.67;84.54;101133.16;5032078;28;20034;-68
2020/12/23 04:44:31;;;;;;;29.60;16.27;;;;;;;4.81;85.04;101148.13;5032414;28;20039;-67
2020/12/23 04:46:58;;;;;;;30.60;17.63;;;;;;;4.57;85.62;101108.50;5032141;28;20185;-67
2020/12/23 04:49:24;;;;;;;40.08;26.55;;;;;;;4.83;85.56;101141.97;5031070;28;20116;-67
2020/12/23 04:51:54;;;;;;;38.25;22.48;;;;;;;4.36;86.31;101092.13;5032363;28;20208;-67
2020/12/23 04:54:20;;;;;;;35.38;20.65;;;;;;;4.31;85.52;101081.91;5031148;28;20492;-67
2020/12/23 04:56:46;;;;;;;33.42;23.42;;;;;;;4.55;84.91;101129.31;5030734;28;20041;-68
2020/12/23 04:59:11;;;;;;;32.30;20.23;;;;;;;4.23;85.07;101099.56;5031400;28;20105;-67
2020/12/23 05:01:37;;;;;;;29.55;19.13;;;;;;;4.31;85.66;101101.84;5031209;28;20033;-67
2020/12/23 05:04:03;;;;;;;34.00;19.58;;;;;;;4.45;85.52;101133.22;5032522;28;20032;-67
2020/12/23 05:06:28;;;;;;;34.65;17.85;;;;;;;4.19;85.80;101090.25;5031753;28;20060;-68
2020/12/23 05:08:53;;;;;;;41.22;24.15;;;;;;;4.48;86.60;101100.19;5033001;28;20056;-67
2020/12/23 05:11:19;;;;;;;25.02;15.30;;;;;;;4.58;85.03;101115.38;5032143;28;20037;-67
2020/12/23 05:13:45;;;;;;;26.50;14.45;;;;;;;4.47;84.29;101113.25;5032401;28;20090;-67
2020/12/23 05:16:12;;;;;;;26.45;16.90;;;;;;;4.59;84.51;101125.72;5032008;28;20029;-67
2020/12/23 05:18:42;;;;;;;24.70;13.60;;;;;;;4.50;85.27;101108.78;5032250;28;20032;-67
2020/12/23 05:21:15;;;;;;;23.10;13.52;;;;;;;4.62;84.34;101111.72;5032032;28;20492;-68
2020/12/23 05:23:48;;;;;;;25.02;14.25;;;;;;;4.84;83.92;101151.44;5031847;28;20477;-67
2020/12/23 05:26:14;;;;;;;25.42;14.80;;;;;;;4.62;85.07;101111.72;5031840;28;20030;-67
2020/12/23 05:28:41;;;;;;;24.50;14.30;;;;;;;4.49;84.00;101090.69;5032041;28;20473;-67
2020/12/23 05:31:09;;;;;;;23.25;14.32;;;;;;;4.69;84.09;101147.78;5031767;28;20045;-67
2020/12/23 05:33:36;;;;;;;22.58;14.07;;;;;;;4.66;83.99;101123.69;5031854;28;20022;-67
2020/12/23 05:36:06;;;;;;;28.00;15.45;;;;;;;4.67;84.20;101131.41;5031711;28;20036;-67
2020/12/23 05:38:34;;;;;;;24.35;14.88;;;;;;;4.88;84.40;101168.56;5031142;28;20080;-67
2020/12/23 05:41:00;;;;;;;20.92;13.07;;;;;;;4.91;84.19;101171.03;5020675;28;20319;-69
2020/12/23 05:43:27;;;;;;;20.38;12.38;;;;;;;5.02;83.93;101173.16;5019591;28;20065;-68
2020/12/23 05:46:01;;;;;;;23.52;13.63;;;;;;;5.00;83.37;101149.03;5012780;28;20041;-68
2020/12/23 05:48:28;;;;;;;27.77;14.40;;;;;;;5.07;83.55;101170.38;5011898;28;20038;-67
2020/12/23 05:50:54;;;;;;;20.88;12.93;;;;;;;5.09;83.53;101169.38;5012498;28;20041;-67
2020/12/23 05:53:19;;;;;;;24.83;14.48;;;;;;;5.13;82.42;101150.16;5012082;28;20029;-67
2020/12/23 05:55:50;;;;;;;22.30;13.27;;;;;;;5.22;82.68;101162.72;5012406;28;20037;-67
2020/12/23 05:58:28;;;;;;;23.83;14.15;;;;;;;5.26;82.37;101158.22;5012023;28;20029;-67
2020/12/23 06:00:56;;;;;;;21.95;14.45;;;;;;;5.21;83.13;101155.84;5011942;28;20105;-68
2020/12/23 06:03:23;;;;;;;31.13;15.48;;;;;;;5.34;81.71;101169.13;5012204;28;20034;-67
2020/12/23 06:06:08;;;;;;;27.30;16.42;;;;;;;5.22;81.30;101134.13;5011840;28;20026;-68
2020/12/23 06:08:36;;;;;;;28.30;17.27;;;;;;;5.32;83.12;101165.75;5014263;28;20030;-67
2020/12/23 06:11:52;;;;;;;26.52;16.70;;;;;;;5.22;82.56;101167.06;5015436;28;20075;-68
2020/12/23 06:14:18;;;;;;;29.48;16.90;;;;;;;5.29;82.25;101158.09;5014190;28;20037;-68
2020/12/23 06:16:49;;;;;;;27.42;16.98;;;;;;;5.24;82.51;101156.63;5015320;28;20026;-68
2020/12/23 06:19:36;;;;;;;25.77;16.20;;;;;;;5.16;82.57;101156.94;5015020;28;20048;-67
2020/12/23 06:22:08;;;;;;;33.05;20.42;;;;;;;4.86;83.49;101144.44;5015218;28;20032;-68
2020/12/23 06:24:35;;;;;;;31.85;16.85;;;;;;;4.82;84.08;101140.25;5015181;28;20036;-67
2020/12/23 06:27:03;;;;;;;26.60;15.82;;;;;;;4.62;83.78;101122.13;5015116;28;20025;-67
2020/12/23 06:29:32;;;;;;;29.77;16.80;;;;;;;4.39;84.59;101126.56;5015303;28;20445;-67
2020/12/23 06:32:08;;;;;;;31.80;16.55;;;;;;;4.35;84.83;101122.38;5014880;28;20046;-68
2020/12/23 06:34:39;;;;;;;33.58;18.55;;;;;;;4.17;86.11;101123.19;5015144;28;20025;-68
2020/12/23 06:37:21;;;;;;;32.67;16.40;;;;;;;4.17;85.88;101118.00;5014954;28;20029;-67
2020/12/23 06:39:48;;;;;;;38.53;20.35;;;;;;;4.15;86.36;101125.84;5014933;28;20076;-67
2020/12/23 06:42:13;;;;;;;40.65;23.23;;;;;;;4.43;86.45;101164.47;5014783;28;20057;-67
2020/12/23 06:44:44;;;;;;;30.90;16.42;;;;;;;4.36;86.80;101163.03;5014584;28;20072;-68
2020/12/23 06:47:20;;;;;;;31.70;16.80;;;;;;;4.36;86.78;101151.81;5015285;28;20029;-68
2020/12/23 06:49:48;;;;;;;30.70;16.48;;;;;;;4.32;88.08;101165.78;5014820;28;20101;-67
2020/12/23 06:52:32;;;;;;;36.92;17.13;;;;;;;4.41;87.39;101170.63;5014789;28;20026;-67
2020/12/23 06:55:01;;;;;;;49.80;28.35;;;;;;;4.50;87.17;101171.06;5014650;28;20109;-67
2020/12/23 07:00:04;;;;;;;46.03;23.55;;;;;;;4.63;87.11;101165.38;5014550;28;20029;-67
2020/12/23 07:02:41;;;;;;;49.80;25.95;;;;;;;4.64;87.75;101146.28;5014960;28;20072;-67
2020/12/23 07:05:26;;;;;;;29.70;15.68;;;;;;;4.93;86.40;101169.22;5013195;28;20022;-67
2020/12/23 07:08:00;;;;;;;29.77;17.83;;;;;;;4.79;85.55;101132.59;5013620;28;20497;-67
2020/12/23 07:10:28;;;;;;;32.55;15.40;;;;;;;5.06;85.09;101145.28;5014331;28;20026;-67
2020/12/23 07:12:55;;;;;;;26.98;15.93;;;;;;;5.01;84.80;101124.72;5014219;28;20053;-67
2020/12/23 07:15:32;;;;;;;32.95;16.52;;;;;;;5.07;84.40;101134.00;5014126;28;20092;-67
2020/12/23 07:18:12;;;;;;;28.90;16.63;;;;;;;5.32;83.23;101147.53;5014137;28;20068;-68
2020/12/23 07:20:39;;;;;;;29.27;15.38;;;;;;;5.57;82.91;101172.41;5027159;28;20033;-67
2020/12/23 07:23:07;;;;;;;29.08;16.58;;;;;;;5.61;82.36;101155.75;5034016;28;20028;-67
2020/12/23 07:25:47;;;;;;;30.23;18.30;;;;;;;5.87;81.45;101173.59;5033762;28;20034;-68
2020/12/23 07:28:15;;;;;;;32.20;16.88;;;;;;;5.85;81.59;101165.00;5032557;28;20498;-69
2020/12/23 07:30:41;;;;;;;32.13;16.50;;;;;;;5.68;80.92;101133.75;5033299;28;20527;-67
2020/12/23 07:33:21;;;;;;;30.88;16.33;;;;;;;5.87;81.27;101139.75;5033426;28;20045;-67
2020/12/23 07:35:55;;;;;;;30.48;17.10;;;;;;;6.06;81.76;101154.50;5033709;28;20065;-67
2020/12/23 07:38:25;;;;;;;33.65;18.63;;;;;;;6.13;81.17;101142.88;5033678;28;20025;-67
2020/12/23 07:40:52;;;;;;;28.05;17.23;;;;;;;6.56;80.48;101187.59;5033581;28;20025;-67
2020/12/23 07:43:19;;;;;;;28.52;17.85;;;;;;;6.62;79.70;101171.66;5033306;28;20481;-67
2020/12/23 07:45:45;;;;;;;32.22;19.95;;;;;;;6.77;78.90;101159.59;5033617;28;20026;-67
2020/12/23 07:48:11;;;;;;;29.52;18.52;;;;;;;6.96;78.33;101173.38;5033522;28;20112;-67
2020/12/23 07:50:57;;;;;;;29.65;17.40;;;;;;;7.17;77.87;101181.81;5033392;28;20075;-67
2020/12/23 07:53:25;;;;;;;32.10;19.13;;;;;;;7.18;77.15;101183.47;5033277;28;20449;-67
2020/12/23 07:56:02;;;;;;;28.65;17.98;;;;;;;7.46;76.51;101189.81;5031999;28;20465;-68
2020/12/23 07:58:31;;;;;;;31.05;18.55;;;;;;;7.30;75.80;101153.31;5033102;28;20112;-67
2020/12/23 08:00:56;;;;;;;32.22;19.40;;;;;;;7.64;76.46;101185.38;5032295;28;20116;-67
2020/12/23 08:03:29;;;;;;;34.85;19.50;;;;;;;7.70;74.06;101172.84;5033393;28;20121;-67
2020/12/23 08:06:16;;;;;;;30.05;19.75;;;;;;;8.04;73.14;101195.28;5033017;28;20025;-67
2020/12/23 08:08:42;;;;;;;34.72;20.75;;;;;;;7.79;73.79;101150.59;5032572;28;20025;-67
2020/12/23 08:11:08;;;;;;;31.70;20.33;;;;;;;7.84;74.31;101194.72;5031920;28;20049;-68
2020/12/23 08:13:33;;;;;;;32.78;19.90;;;;;;;7.78;73.89;101185.47;5032955;28;20469;-68
2020/12/23 08:16:15;;;;;;;29.98;19.17;;;;;;;7.78;74.01;101175.84;5026213;28;20083;-69
2020/12/23 08:18:42;;;;;;;31.60;19.60;;;;;;;7.70;73.18;101183.28;5023672;28;20115;-68
2020/12/23 08:21:09;;;;;;;33.90;19.88;;;;;;;7.64;73.75;101160.13;5024398;28;20121;-68
2020/12/23 08:23:34;;;;;;;30.77;19.75;;;;;;;7.90;73.24;101178.72;5018319;28;20501;-68
2020/12/23 08:26:01;;;;;;;32.83;20.15;;;;;;;8.07;73.23;101170.78;5026854;28;20033;-68
2020/12/23 08:28:27;;;;;;;32.92;19.20;;;;;;;8.20;71.62;101171.75;5023685;28;20026;-68
2020/12/23 08:30:53;;;;;;;33.00;19.63;;;;;;;8.04;72.00;101147.47;5012428;28;20037;-70
2020/12/23 08:33:23;;;;;;;27.95;18.73;;;;;;;8.26;72.14;101147.88;5022362;28;20511;-69
2020/12/23 08:35:57;;;;;;;33.35;20.20;;;;;;;8.28;71.17;101163.47;5028172;28;20049;-69
2020/12/23 08:38:26;;;;;;;39.08;25.40;;;;;;;8.29;71.27;101168.59;5017644;28;20033;-68
2020/12/23 08:40:53;;;;;;;28.95;19.13;;;;;;;8.17;71.32;101156.28;5023925;28;20084;-68
2020/12/23 08:43:27;;;;;;;28.05;17.75;;;;;;;7.90;71.01;101100.44;5019888;28;20037;-70
2020/12/23 08:45:54;;;;;;;30.63;18.55;;;;;;;8.48;70.05;101149.28;5021049;28;20029;-69
2020/12/23 08:48:25;;;;;;;33.65;19.80;;;;;;;8.63;69.95;101156.19;5013899;28;20079;-68
2020/12/23 08:50:56;;;;;;;30.85;19.23;;;;;;;8.58;70.51;101115.63;5021677;28;20037;-68
2020/12/23 08:53:29;;;;;;;32.25;20.92;;;;;;;8.59;69.32;101118.13;5022066;28;20124;-68
2020/12/23 08:55:54;;;;;;;32.03;20.92;;;;;;;8.80;69.33;101138.66;5013803;28;20030;-70
2020/12/23 08:58:20;;;;;;;28.67;19.42;;;;;;;8.65;70.10;101107.31;5017287;28;20034;-70
2020/12/23 09:00:56;;;;;;;29.48;18.25;;;;;;;8.85;69.43;101115.72;5019109;28;20482;-70
2020/12/23 09:03:24;;;;;;;33.50;18.80;;;;;;;8.72;70.59;101106.00;5018023;28;20115;-70
2020/12/23 09:05:50;;;;;;;29.33;18.92;;;;;;;8.85;69.15;101128.78;5017607;28;20030;-68
2020/12/23 09:08:16;;;;;;;27.77;17.77;;;;;;;8.59;71.23;101052.81;5016338;28;20037;-68
2020/12/23 09:10:54;;;;;;;28.75;17.08;;;;;;;8.94;69.17;101087.25;5023594;28;20098;-67
2020/12/23 09:13:28;;;;;;;27.48;16.30;;;;;;;8.77;67.75;101089.19;5025706;28;20061;-67
2020/12/23 09:15:54;;;;;;;22.13;13.68;;;;;;;8.65;66.65;101089.03;5024276;28;20445;-68
2020/12/23 09:18:19;;;;;;;53.33;32.65;;;;;;;8.71;68.80;101077.38;5022417;28;20041;-69
2020/12/23 09:20:45;;;;;;;26.73;16.60;;;;;;;9.01;67.87;101108.63;5025478;28;20108;-67
2020/12/23 09:23:18;;;;;;;23.17;15.77;;;;;;;9.08;68.04;101107.31;5024449;28;20040;-67
2020/12/23 09:25:44;;;;;;;26.58;16.40;;;;;;;9.19;67.23;101110.06;5023181;28;20026;-68
2020/12/23 09:28:14;;;;;;;25.42;15.48;;;;;;;8.92;67.70;101096.94;5019663;28;20485;-67
2020/12/23 09:30:39;;;;;;;;;;;;;;;8.72;68.53;101095.56;5014022;28;20045;-68
2020/12/23 09:33:11;;;;;;;23.42;14.23;;;;;;;8.85;69.55;101089.59;5023290;28;19917;-68
2020/12/23 09:35:38;;;;;;;22.50;14.82;;;;;;;8.94;69.38;101079.41;5020752;28;20025;-67
2020/12/23 09:38:23;;;;;;;21.00;14.27;;;;;;;9.07;67.67;101086.47;5026643;28;20025;-67
2020/12/23 09:40:54;;;;;;;50.05;34.22;;;;;;;9.18;67.07;101052.66;5026560;28;20037;-67
2020/12/23 09:43:28;;;;;;;20.40;13.55;;;;;;;9.40;67.28;101049.47;5020516;28;20500;-67
2020/12/23 09:45:56;;;;;;;19.27;13.50;;;;;;;9.67;65.83;101079.09;5025167;28;20038;-68
2020/12/23 09:48:23;;;;;;;19.27;13.35;;;;;;;9.79;65.76;101077.47;5022734;28;20099;-67
2020/12/23 09:50:52;;;;;;;18.42;12.70;;;;;;;9.58;65.85;101047.44;5015735;28;20117;-67
2020/12/23 09:53:19;;;;;;;19.05;13.02;;;;;;;9.95;65.06;101077.25;5029166;28;20025;-67
2020/12/23 09:55:45;;;;;;;20.45;13.20;;;;;;;9.84;64.79;101050.97;5017256;28;20032;-67
2020/12/23 09:58:12;;;;;;;16.67;12.18;;;;;;;9.79;64.02;101077.47;5021587;28;20033;-66
2020/12/23 10:00:38;;;;;;;20.33;14.23;;;;;;;9.44;66.52;101040.50;5022836;28;20032;-68
2020/12/23 10:03:05;;;;;;;19.90;13.90;;;;;;;9.53;67.03;101060.84;5020012;28;20429;-69
2020/12/23 10:05:31;;;;;;;26.25;16.95;;;;;;;9.38;68.76;101030.41;5023256;28;20112;-68
2020/12/23 10:07:57;;;;;;;23.48;15.82;;;;;;;9.49;66.47;101027.97;5029793;28;20032;-67
2020/12/23 10:10:23;;;;;;;24.95;15.25;;;;;;;9.65;67.85;101027.78;5017346;28;20026;-67
2020/12/23 10:12:48;;;;;;;22.40;14.57;;;;;;;9.72;67.64;101055.25;5022408;28;20532;-67
2020/12/23 10:15:14;;;;;;;24.08;15.77;;;;;;;9.49;66.82;101043.66;5020469;28;20519;-67
2020/12/23 10:17:39;;;;;;;29.90;16.75;;;;;;;9.43;66.20;101012.66;5024070;28;20539;-68
2020/12/23 10:20:06;;;;;;;23.67;15.88;;;;;;;9.74;66.13;101050.72;5021470;28;20044;-67
2020/12/23 10:22:32;;;;;;;28.83;16.00;;;;;;;9.59;68.12;101041.28;5020227;28;20029;-67
2020/12/23 10:24:58;;;;;;;23.75;15.25;;;;;;;9.77;68.25;101036.63;5019484;28;20787;-67
2020/12/23 10:27:24;;;;;;;27.00;17.13;;;;;;;9.75;67.94;101026.22;5023149;28;20072;-68
2020/12/23 10:29:49;;;;;;;26.00;18.08;;;;;;;9.28;67.28;101001.44;5019719;28;20033;-67
2020/12/23 10:32:15;;;;;;;84.82;44.03;;;;;;;9.54;68.29;101030.25;5022033;28;20045;-67
2020/12/23 10:34:42;;;;;;;30.17;18.98;;;;;;;9.47;67.96;101024.59;5018438;28;20033;-67
2020/12/23 10:37:07;;;;;;;27.70;17.40;;;;;;;9.23;67.87;101022.63;5023463;28;20091;-67
2020/12/23 10:39:33;;;;;;;63.85;38.55;;;;;;;9.20;70.01;100993.22;5020218;28;20029;-67
2020/12/23 10:41:58;;;;;;;25.55;15.63;;;;;;;9.25;69.27;101008.59;5014094;28;20104;-68
2020/12/23 10:44:24;;;;;;;27.55;16.13;;;;;;;8.80;69.59;100971.41;5018626;28;20042;-67
2020/12/23 10:46:57;;;;;;;26.20;15.70;;;;;;;9.13;71.08;101010.25;5021886;28;20579;-67
2020/12/23 10:49:32;;;;;;;22.73;15.50;;;;;;;9.00;68.92;100994.50;5017549;28;20026;-69
2020/12/23 10:51:58;;;;;;;24.60;14.77;;;;;;;8.79;69.92;100978.41;5023464;28;20056;-68
2020/12/23 10:54:25;;;;;;;23.15;14.30;;;;;;;8.91;70.45;101000.28;5026534;28;20416;-68
2020/12/23 10:56:50;;;;;;;27.50;15.70;;;;;;;8.95;70.71;100986.13;5026934;28;20033;-68
2020/12/23 10:59:16;;;;;;;23.13;14.70;;;;;;;9.10;70.13;101006.03;5027195;28;20044;-68
2020/12/23 11:01:41;;;;;;;21.13;13.10;;;;;;;8.94;69.30;100963.50;5028622;28;20477;-68
2020/12/23 11:04:07;;;;;;;20.75;13.38;;;;;;;8.71;69.46;100975.44;5028351;28;20021;-68
2020/12/23 11:06:33;;;;;;;21.95;13.35;;;;;;;8.74;70.33;100968.25;5027984;28;20041;-66
2020/12/23 11:08:59;;;;;;;19.80;13.10;;;;;;;8.78;69.50;100992.41;5029622;28;20461;-68
2020/12/23 11:11:25;;;;;;;23.67;14.25;;;;;;;8.77;69.72;101003.78;5020822;28;20025;-70
2020/12/23 11:13:51;;;;;;;20.27;13.68;;;;;;;8.69;70.57;100991.19;5025000;28;20102;-68
2020/12/23 11:16:17;;;;;;;22.95;13.90;;;;;;;8.67;69.63;100960.88;5029722;28;20037;-68
2020/12/23 11:18:45;;;;;;;22.30;14.57;;;;;;;8.97;71.18;100986.84;5030841;28;20485;-69
2020/12/23 11:21:11;;;;;;;21.60;14.55;;;;;;;9.09;71.09;100987.84;5027644;28;20030;-69